sensor_id;sensor_type;location;lat;lon;timestamp;temperature;humidity
18229;DHT22;9239;50.932;3.142;2022-07-23T00:01:38;16.40;99.90
18229;DHT22;9239;50.932;3.142;2022-07-23T00:04:06;16.40;99.90
18229;DHT22;9239;50.932;3.142;2022-07-23T00:06:33;16.40;99.90
18229;DHT22;9239;50.932;3.142;2022-07-23T00:09:00;16.40;99.90
18229;DHT22;9239;50.932;3.142;2022-07-23T00:11:27;16.30;99.90
18229;DHT22;9239;50.932;3.142;2022-07-23T00:13:54;16.20;99.90
18229;DHT22;9239;50.932;3.142;2022-07-23T00:16:23;16.20;99.90
18229;DHT22;9239;50.932;3.142;2022-07-23T00:18:51;16.20;99.90
18229;DHT22;9239;50.932;3.142;2022-07-23T00:21:18;16.20;99.90
18229;DHT22;9239;50.932;3.142;2022-07-23T00:23:45;16.20;99.90
18229;DHT22;9239;50.932;3.142;2022-07-23T00:26:12;16.20;99.90
18229;DHT22;9239;50.932;3.142;2022-07-23T00:28:39;16.30;99.90
18229;DHT22;9239;50.932;3.142;2022-07-23T00:31:06;16.30;99.90
18229;DHT22;9239;50.932;3.142;2022-07-23T00:33:33;16.30;99.90
18229;DHT22;9239;50.932;3.142;2022-07-23T00:36:01;16.20;99.90
18229;DHT22;9239;50.932;3.142;2022-07-23T00:38:28;16.20;99.90
18229;DHT22;9239;50.932;3.142;2022-07-23T00:40:55;16.20;99.90
18229;DHT22;9239;50.932;3.142;2022-07-23T00:43:23;16.30;99.90
18229;DHT22;9239;50.932;3.142;2022-07-23T00:45:50;16.20;99.90
18229;DHT22;9239;50.932;3.142;2022-07-23T00:48:17;16.30;99.90
18229;DHT22;9239;50.932;3.142;2022-07-23T00:50:44;16.20;99.90
18229;DHT22;9239;50.932;3.142;2022-07-23T00:53:12;16.10;99.90
18229;DHT22;9239;50.932;3.142;2022-07-23T00:55:40;16.10;99.90
18229;DHT22;9239;50.932;3.142;2022-07-23T00:58:06;15.90;99.90
18229;DHT22;9239;50.932;3.142;2022-07-23T01:00:34;15.90;99.90
18229;DHT22;9239;50.932;3.142;2022-07-23T01:03:01;15.90;99.90
18229;DHT22;9239;50.932;3.142;2022-07-23T01:05:28;15.90;99.90
18229;DHT22;9239;50.932;3.142;2022-07-23T01:07:55;15.90;99.90
18229;DHT22;9239;50.932;3.142;2022-07-23T01:10:23;16.00;99.90
18229;DHT22;9239;50.932;3.142;2022-07-23T01:13:01;16.00;99.90
18229;DHT22;9239;50.932;3.142;2022-07-23T01:15:28;16.00;99.90
18229;DHT22;9239;50.932;3.142;2022-07-23T01:17:55;16.00;99.90
18229;DHT22;9239;50.932;3.142;2022-07-23T01:20:23;16.00;99.90
18229;DHT22;9239;50.932;3.142;2022-07-23T01:22:52;16.00;99.90
18229;DHT22;9239;50.932;3.142;2022-07-23T01:25:19;16.00;99.90
18229;DHT22;9239;50.932;3.142;2022-07-23T01:27:47;15.90;99.90
18229;DHT22;9239;50.932;3.142;2022-07-23T01:30:14;15.90;99.90
18229;DHT22;9239;50.932;3.142;2022-07-23T01:32:41;15.80;99.90
18229;DHT22;9239;50.932;3.142;2022-07-23T01:35:08;15.80;99.90
18229;DHT22;9239;50.932;3.142;2022-07-23T01:37:36;15.80;99.90
18229;DHT22;9239;50.932;3.142;2022-07-23T01:40:05;15.80;99.90
18229;DHT22;9239;50.932;3.142;2022-07-23T01:42:32;15.90;99.90
18229;DHT22;9239;50.932;3.142;2022-07-23T01:44:59;15.90;99.90
18229;DHT22;9239;50.932;3.142;2022-07-23T01:47:26;15.90;99.90
18229;DHT22;9239;50.932;3.142;2022-07-23T01:49:53;15.90;99.90
18229;DHT22;9239;50.932;3.142;2022-07-23T01:52:20;15.90;99.90
18229;DHT22;9239;50.932;3.142;2022-07-23T01:54:47;15.80;99.90
18229;DHT22;9239;50.932;3.142;2022-07-23T01:57:16;15.80;99.90
18229;DHT22;9239;50.932;3.142;2022-07-23T01:59:42;15.80;99.90
18229;DHT22;9239;50.932;3.142;2022-07-23T02:02:09;15.90;99.90
18229;DHT22;9239;50.932;3.142;2022-07-23T02:04:36;15.80;99.90
18229;DHT22;9239;50.932;3.142;2022-07-23T02:07:04;15.70;99.90
18229;DHT22;9239;50.932;3.142;2022-07-23T02:09:31;15.60;99.90
18229;DHT22;9239;50.932;3.142;2022-07-23T02:11:58;15.50;99.90
18229;DHT22;9239;50.932;3.142;2022-07-23T02:14:27;15.40;99.90
18229;DHT22;9239;50.932;3.142;2022-07-23T02:16:54;15.40;99.90
18229;DHT22;9239;50.932;3.142;2022-07-23T02:19:21;15.50;99.90
18229;DHT22;9239;50.932;3.142;2022-07-23T02:21:48;15.50;99.90
18229;DHT22;9239;50.932;3.142;2022-07-23T02:24:15;15.60;99.90
18229;DHT22;9239;50.932;3.142;2022-07-23T02:26:42;15.60;99.90
18229;DHT22;9239;50.932;3.142;2022-07-23T02:29:09;15.60;99.90
18229;DHT22;9239;50.932;3.142;2022-07-23T02:31:37;15.60;99.90
18229;DHT22;9239;50.932;3.142;2022-07-23T02:34:05;15.60;99.90
18229;DHT22;9239;50.932;3.142;2022-07-23T02:36:32;15.60;99.90
18229;DHT22;9239;50.932;3.142;2022-07-23T02:38:59;15.60;99.90
18229;DHT22;9239;50.932;3.142;2022-07-23T02:41:26;15.70;99.90
18229;DHT22;9239;50.932;3.142;2022-07-23T02:43:53;15.70;99.90
18229;DHT22;9239;50.932;3.142;2022-07-23T02:46:20;15.70;99.90
18229;DHT22;9239;50.932;3.142;2022-07-23T02:48:48;15.70;99.90
18229;DHT22;9239;50.932;3.142;2022-07-23T02:51:15;15.70;99.90
18229;DHT22;9239;50.932;3.142;2022-07-23T02:53:42;15.60;99.90
18229;DHT22;9239;50.932;3.142;2022-07-23T02:56:09;15.60;99.90
18229;DHT22;9239;50.932;3.142;2022-07-23T02:58:36;15.70;99.90
18229;DHT22;9239;50.932;3.142;2022-07-23T03:01:03;15.70;99.90
18229;DHT22;9239;50.932;3.142;2022-07-23T03:03:30;15.70;99.90
18229;DHT22;9239;50.932;3.142;2022-07-23T03:05:58;15.70;99.90
18229;DHT22;9239;50.932;3.142;2022-07-23T03:08:25;15.70;99.90
18229;DHT22;9239;50.932;3.142;2022-07-23T03:10:52;15.70;99.90
18229;DHT22;9239;50.932;3.142;2022-07-23T03:13:19;15.60;99.90
18229;DHT22;9239;50.932;3.142;2022-07-23T03:15:46;15.60;99.90
18229;DHT22;9239;50.932;3.142;2022-07-23T03:18:13;15.60;99.90
18229;DHT22;9239;50.932;3.142;2022-07-23T03:20:40;15.60;99.90
18229;DHT22;9239;50.932;3.142;2022-07-23T03:23:09;15.60;99.90
18229;DHT22;9239;50.932;3.142;2022-07-23T03:25:36;15.60;99.90
18229;DHT22;9239;50.932;3.142;2022-07-23T03:28:04;15.60;99.90
18229;DHT22;9239;50.932;3.142;2022-07-23T03:30:31;15.60;99.90
18229;DHT22;9239;50.932;3.142;2022-07-23T03:32:58;15.60;99.90
18229;DHT22;9239;50.932;3.142;2022-07-23T03:35:25;15.60;99.90
18229;DHT22;9239;50.932;3.142;2022-07-23T03:37:52;15.50;99.90
18229;DHT22;9239;50.932;3.142;2022-07-23T03:40:20;15.50;99.90
18229;DHT22;9239;50.932;3.142;2022-07-23T03:42:47;15.50;99.90
18229;DHT22;9239;50.932;3.142;2022-07-23T03:45:14;15.50;99.90
18229;DHT22;9239;50.932;3.142;2022-07-23T03:47:41;15.60;99.90
18229;DHT22;9239;50.932;3.142;2022-07-23T03:50:09;15.50;99.90
18229;DHT22;9239;50.932;3.142;2022-07-23T03:52:36;15.50;99.90
18229;DHT22;9239;50.932;3.142;2022-07-23T03:55:04;15.60;99.90
18229;DHT22;9239;50.932;3.142;2022-07-23T03:57:32;15.60;99.90
18229;DHT22;9239;50.932;3.142;2022-07-23T03:59:59;15.60;99.90
18229;DHT22;9239;50.932;3.142;2022-07-23T04:02:26;15.60;99.90
18229;DHT22;9239;50.932;3.142;2022-07-23T04:04:53;15.60;99.90
18229;DHT22;9239;50.932;3.142;2022-07-23T04:07:20;15.50;99.90
18229;DHT22;9239;50.932;3.142;2022-07-23T04:09:47;15.50;99.90
18229;DHT22;9239;50.932;3.142;2022-07-23T04:12:14;15.60;99.90
18229;DHT22;9239;50.932;3.142;2022-07-23T04:14:43;15.60;99.90
18229;DHT22;9239;50.932;3.142;2022-07-23T04:17:10;15.70;99.90
18229;DHT22;9239;50.932;3.142;2022-07-23T04:19:37;15.70;99.90
18229;DHT22;9239;50.932;3.142;2022-07-23T04:22:06;15.70;99.90
18229;DHT22;9239;50.932;3.142;2022-07-23T04:24:33;15.80;99.90
18229;DHT22;9239;50.932;3.142;2022-07-23T04:27:00;15.80;99.90
18229;DHT22;9239;50.932;3.142;2022-07-23T04:29:27;15.80;99.90
18229;DHT22;9239;50.932;3.142;2022-07-23T04:31:55;15.70;99.90
18229;DHT22;9239;50.932;3.142;2022-07-23T04:34:22;15.80;99.90
18229;DHT22;9239;50.932;3.142;2022-07-23T04:36:52;15.80;99.90
18229;DHT22;9239;50.932;3.142;2022-07-23T04:39:19;15.80;99.90
18229;DHT22;9239;50.932;3.142;2022-07-23T04:41:46;15.90;99.90
18229;DHT22;9239;50.932;3.142;2022-07-23T04:44:13;15.90;99.90
18229;DHT22;9239;50.932;3.142;2022-07-23T04:46:40;15.90;99.90
18229;DHT22;9239;50.932;3.142;2022-07-23T04:49:08;15.90;99.90
18229;DHT22;9239;50.932;3.142;2022-07-23T04:51:35;15.90;99.90
18229;DHT22;9239;50.932;3.142;2022-07-23T04:54:03;15.90;99.90
18229;DHT22;9239;50.932;3.142;2022-07-23T04:56:29;15.90;99.90
18229;DHT22;9239;50.932;3.142;2022-07-23T04:58:57;15.90;99.90
18229;DHT22;9239;50.932;3.142;2022-07-23T05:01:23;16.00;99.90
18229;DHT22;9239;50.932;3.142;2022-07-23T05:03:50;16.20;99.90
18229;DHT22;9239;50.932;3.142;2022-07-23T05:06:19;16.20;99.90
18229;DHT22;9239;50.932;3.142;2022-07-23T05:08:46;16.30;99.90
18229;DHT22;9239;50.932;3.142;2022-07-23T05:11:13;16.30;99.90
18229;DHT22;9239;50.932;3.142;2022-07-23T05:13:40;16.40;99.90
18229;DHT22;9239;50.932;3.142;2022-07-23T05:16:07;16.50;99.90
18229;DHT22;9239;50.932;3.142;2022-07-23T05:18:34;16.50;99.90
18229;DHT22;9239;50.932;3.142;2022-07-23T05:21:01;16.60;99.90
18229;DHT22;9239;50.932;3.142;2022-07-23T05:23:29;16.70;99.90
18229;DHT22;9239;50.932;3.142;2022-07-23T05:25:56;16.90;99.90
18229;DHT22;9239;50.932;3.142;2022-07-23T05:28:24;17.00;99.90
18229;DHT22;9239;50.932;3.142;2022-07-23T05:30:51;17.10;99.90
18229;DHT22;9239;50.932;3.142;2022-07-23T05:33:18;17.20;99.90
18229;DHT22;9239;50.932;3.142;2022-07-23T05:35:45;17.50;99.90
18229;DHT22;9239;50.932;3.142;2022-07-23T05:38:12;17.50;99.90
18229;DHT22;9239;50.932;3.142;2022-07-23T05:40:41;17.70;99.90
18229;DHT22;9239;50.932;3.142;2022-07-23T05:43:08;17.90;99.90
18229;DHT22;9239;50.932;3.142;2022-07-23T05:45:34;17.90;99.90
18229;DHT22;9239;50.932;3.142;2022-07-23T05:48:01;18.10;99.90
18229;DHT22;9239;50.932;3.142;2022-07-23T05:50:29;18.30;99.90
18229;DHT22;9239;50.932;3.142;2022-07-23T05:52:56;18.40;99.90
18229;DHT22;9239;50.932;3.142;2022-07-23T05:55:23;18.60;99.90
18229;DHT22;9239;50.932;3.142;2022-07-23T05:57:51;18.70;99.90
18229;DHT22;9239;50.932;3.142;2022-07-23T06:00:18;18.80;99.90
18229;DHT22;9239;50.932;3.142;2022-07-23T06:02:45;18.90;99.90
18229;DHT22;9239;50.932;3.142;2022-07-23T06:05:12;18.90;99.90
18229;DHT22;9239;50.932;3.142;2022-07-23T06:07:39;19.00;99.90
18229;DHT22;9239;50.932;3.142;2022-07-23T06:10:07;18.90;99.90
18229;DHT22;9239;50.932;3.142;2022-07-23T06:12:34;19.00;99.90
18229;DHT22;9239;50.932;3.142;2022-07-23T06:15:03;18.90;99.90
18229;DHT22;9239;50.932;3.142;2022-07-23T06:17:30;19.00;99.90
18229;DHT22;9239;50.932;3.142;2022-07-23T06:19:57;19.00;99.90
18229;DHT22;9239;50.932;3.142;2022-07-23T06:22:24;19.00;99.90
18229;DHT22;9239;50.932;3.142;2022-07-23T06:24:51;18.90;99.90
18229;DHT22;9239;50.932;3.142;2022-07-23T06:27:18;18.90;99.90
18229;DHT22;9239;50.932;3.142;2022-07-23T06:29:45;19.10;99.90
18229;DHT22;9239;50.932;3.142;2022-07-23T06:32:13;19.20;99.90
18229;DHT22;9239;50.932;3.142;2022-07-23T06:34:41;19.10;99.90
18229;DHT22;9239;50.932;3.142;2022-07-23T06:37:08;19.20;99.90
18229;DHT22;9239;50.932;3.142;2022-07-23T06:39:35;19.20;99.90
18229;DHT22;9239;50.932;3.142;2022-07-23T06:42:02;19.40;99.90
18229;DHT22;9239;50.932;3.142;2022-07-23T06:44:29;19.40;99.90
18229;DHT22;9239;50.932;3.142;2022-07-23T06:46:56;19.30;99.90
18229;DHT22;9239;50.932;3.142;2022-07-23T06:49:24;19.30;99.90
18229;DHT22;9239;50.932;3.142;2022-07-23T06:51:51;19.30;99.90
18229;DHT22;9239;50.932;3.142;2022-07-23T06:54:18;19.20;99.90
18229;DHT22;9239;50.932;3.142;2022-07-23T06:56:44;19.10;99.90
18229;DHT22;9239;50.932;3.142;2022-07-23T06:59:11;19.10;99.90
18229;DHT22;9239;50.932;3.142;2022-07-23T07:01:38;19.10;99.90
18229;DHT22;9239;50.932;3.142;2022-07-23T07:04:05;19.20;99.90
18229;DHT22;9239;50.932;3.142;2022-07-23T07:06:34;19.20;99.90
18229;DHT22;9239;50.932;3.142;2022-07-23T07:09:01;19.20;99.90
18229;DHT22;9239;50.932;3.142;2022-07-23T07:11:28;19.20;99.90
18229;DHT22;9239;50.932;3.142;2022-07-23T07:13:55;19.30;99.90
18229;DHT22;9239;50.932;3.142;2022-07-23T07:16:21;19.40;99.90
18229;DHT22;9239;50.932;3.142;2022-07-23T07:18:48;19.50;99.90
18229;DHT22;9239;50.932;3.142;2022-07-23T07:21:15;19.60;99.90
18229;DHT22;9239;50.932;3.142;2022-07-23T07:23:44;19.60;99.90
18229;DHT22;9239;50.932;3.142;2022-07-23T07:26:10;19.60;99.90
18229;DHT22;9239;50.932;3.142;2022-07-23T07:28:37;19.70;99.90
18229;DHT22;9239;50.932;3.142;2022-07-23T07:31:05;19.80;99.90
18229;DHT22;9239;50.932;3.142;2022-07-23T07:33:32;19.90;99.90
18229;DHT22;9239;50.932;3.142;2022-07-23T07:35:59;20.00;99.90
18229;DHT22;9239;50.932;3.142;2022-07-23T07:38:26;20.10;99.90
18229;DHT22;9239;50.932;3.142;2022-07-23T07:40:54;20.00;99.90
18229;DHT22;9239;50.932;3.142;2022-07-23T07:43:21;20.00;99.90
18229;DHT22;9239;50.932;3.142;2022-07-23T07:45:48;19.90;99.90
18229;DHT22;9239;50.932;3.142;2022-07-23T07:48:15;20.00;99.90
18229;DHT22;9239;50.932;3.142;2022-07-23T07:50:42;20.20;99.90
18229;DHT22;9239;50.932;3.142;2022-07-23T07:53:09;20.20;99.90
18229;DHT22;9239;50.932;3.142;2022-07-23T07:55:36;20.30;99.90
18229;DHT22;9239;50.932;3.142;2022-07-23T07:58:04;20.30;99.90
18229;DHT22;9239;50.932;3.142;2022-07-23T08:00:31;20.40;99.90
18229;DHT22;9239;50.932;3.142;2022-07-23T08:02:59;20.60;99.90
18229;DHT22;9239;50.932;3.142;2022-07-23T08:05:27;20.80;99.90
18229;DHT22;9239;50.932;3.142;2022-07-23T08:07:55;20.70;99.90
18229;DHT22;9239;50.932;3.142;2022-07-23T08:10:23;20.80;99.90
18229;DHT22;9239;50.932;3.142;2022-07-23T08:12:52;20.90;99.90
18229;DHT22;9239;50.932;3.142;2022-07-23T08:15:22;20.90;99.90
18229;DHT22;9239;50.932;3.142;2022-07-23T08:17:50;21.10;99.90
18229;DHT22;9239;50.932;3.142;2022-07-23T08:20:20;21.10;99.90
18229;DHT22;9239;50.932;3.142;2022-07-23T08:22:49;21.30;99.90
18229;DHT22;9239;50.932;3.142;2022-07-23T08:25:20;21.40;99.90
18229;DHT22;9239;50.932;3.142;2022-07-23T08:27:47;21.40;99.90
18229;DHT22;9239;50.932;3.142;2022-07-23T08:30:15;21.40;99.90
18229;DHT22;9239;50.932;3.142;2022-07-23T08:32:55;21.50;99.90
18229;DHT22;9239;50.932;3.142;2022-07-23T08:35:24;21.60;99.90
18229;DHT22;9239;50.932;3.142;2022-07-23T08:37:51;21.50;99.90
18229;DHT22;9239;50.932;3.142;2022-07-23T08:40:19;21.50;99.90
18229;DHT22;9239;50.932;3.142;2022-07-23T08:42:47;21.70;99.90
18229;DHT22;9239;50.932;3.142;2022-07-23T08:45:17;21.80;99.90
18229;DHT22;9239;50.932;3.142;2022-07-23T08:47:49;21.70;99.90
18229;DHT22;9239;50.932;3.142;2022-07-23T08:50:18;21.80;99.90
18229;DHT22;9239;50.932;3.142;2022-07-23T08:52:45;22.00;99.90
18229;DHT22;9239;50.932;3.142;2022-07-23T08:55:12;22.00;99.90
18229;DHT22;9239;50.932;3.142;2022-07-23T08:57:39;22.10;99.90
18229;DHT22;9239;50.932;3.142;2022-07-23T09:00:07;22.40;99.90
18229;DHT22;9239;50.932;3.142;2022-07-23T09:02:41;22.40;99.90
18229;DHT22;9239;50.932;3.142;2022-07-23T09:05:09;22.50;99.90
18229;DHT22;9239;50.932;3.142;2022-07-23T09:08:09;22.50;99.90
18229;DHT22;9239;50.932;3.142;2022-07-23T09:10:48;22.50;99.90
18229;DHT22;9239;50.932;3.142;2022-07-23T09:13:33;22.50;99.90
18229;DHT22;9239;50.932;3.142;2022-07-23T09:16:03;22.50;99.90
18229;DHT22;9239;50.932;3.142;2022-07-23T09:18:42;22.50;99.90
18229;DHT22;9239;50.932;3.142;2022-07-23T09:21:16;22.50;99.90
18229;DHT22;9239;50.932;3.142;2022-07-23T09:23:47;22.30;99.90
18229;DHT22;9239;50.932;3.142;2022-07-23T09:26:23;22.30;99.90
18229;DHT22;9239;50.932;3.142;2022-07-23T09:28:53;22.40;99.90
18229;DHT22;9239;50.932;3.142;2022-07-23T09:31:20;22.60;99.90
18229;DHT22;9239;50.932;3.142;2022-07-23T09:33:48;22.70;99.90
18229;DHT22;9239;50.932;3.142;2022-07-23T09:36:14;22.80;99.90
18229;DHT22;9239;50.932;3.142;2022-07-23T09:38:50;22.80;99.90
18229;DHT22;9239;50.932;3.142;2022-07-23T09:41:17;22.80;99.90
18229;DHT22;9239;50.932;3.142;2022-07-23T09:43:44;22.90;99.90
18229;DHT22;9239;50.932;3.142;2022-07-23T09:46:18;23.00;99.90
18229;DHT22;9239;50.932;3.142;2022-07-23T09:48:46;23.00;99.90
18229;DHT22;9239;50.932;3.142;2022-07-23T09:51:13;23.10;99.90
18229;DHT22;9239;50.932;3.142;2022-07-23T09:53:42;23.00;99.90
18229;DHT22;9239;50.932;3.142;2022-07-23T09:56:12;23.00;99.90
18229;DHT22;9239;50.932;3.142;2022-07-23T09:58:41;23.00;99.90
18229;DHT22;9239;50.932;3.142;2022-07-23T10:01:14;23.10;99.90
18229;DHT22;9239;50.932;3.142;2022-07-23T10:03:42;23.00;99.90
18229;DHT22;9239;50.932;3.142;2022-07-23T10:06:09;23.00;99.90
18229;DHT22;9239;50.932;3.142;2022-07-23T10:08:38;23.10;99.90
18229;DHT22;9239;50.932;3.142;2022-07-23T10:11:07;23.10;99.90
18229;DHT22;9239;50.932;3.142;2022-07-23T10:13:37;23.10;99.90
18229;DHT22;9239;50.932;3.142;2022-07-23T10:16:20;23.20;99.90
18229;DHT22;9239;50.932;3.142;2022-07-23T10:18:47;23.30;99.90
18229;DHT22;9239;50.932;3.142;2022-07-23T10:21:20;23.50;99.90
18229;DHT22;9239;50.932;3.142;2022-07-23T10:23:58;23.50;99.90
18229;DHT22;9239;50.932;3.142;2022-07-23T10:26:35;23.30;99.90
18229;DHT22;9239;50.932;3.142;2022-07-23T10:29:13;23.30;99.90
18229;DHT22;9239;50.932;3.142;2022-07-23T10:31:51;23.50;99.90
18229;DHT22;9239;50.932;3.142;2022-07-23T10:34:23;23.70;99.90
18229;DHT22;9239;50.932;3.142;2022-07-23T10:36:56;23.80;99.90
18229;DHT22;9239;50.932;3.142;2022-07-23T10:39:27;23.90;99.90
18229;DHT22;9239;50.932;3.142;2022-07-23T10:42:08;24.00;99.90
18229;DHT22;9239;50.932;3.142;2022-07-23T10:44:40;23.90;99.90
18229;DHT22;9239;50.932;3.142;2022-07-23T10:47:09;24.00;99.90
18229;DHT22;9239;50.932;3.142;2022-07-23T10:49:43;24.10;99.90
18229;DHT22;9239;50.932;3.142;2022-07-23T10:52:22;24.40;99.90
18229;DHT22;9239;50.932;3.142;2022-07-23T10:54:51;24.40;99.90
18229;DHT22;9239;50.932;3.142;2022-07-23T10:57:19;24.50;99.90
18229;DHT22;9239;50.932;3.142;2022-07-23T11:00:14;24.50;99.90
18229;DHT22;9239;50.932;3.142;2022-07-23T11:02:44;24.60;99.90
18229;DHT22;9239;50.932;3.142;2022-07-23T11:05:13;24.80;99.90
18229;DHT22;9239;50.932;3.142;2022-07-23T11:13:45;24.80;99.90
18229;DHT22;9239;50.932;3.142;2022-07-23T11:16:16;25.00;99.90
18229;DHT22;9239;50.932;3.142;2022-07-23T11:19:04;24.90;99.90
18229;DHT22;9239;50.932;3.142;2022-07-23T11:21:51;24.90;99.90
18229;DHT22;9239;50.932;3.142;2022-07-23T11:24:21;24.70;99.90
18229;DHT22;9239;50.932;3.142;2022-07-23T11:26:54;24.70;99.90
18229;DHT22;9239;50.932;3.142;2022-07-23T11:29:48;24.80;99.90
18229;DHT22;9239;50.932;3.142;2022-07-23T11:32:37;24.90;99.90
18229;DHT22;9239;50.932;3.142;2022-07-23T11:35:25;25.10;99.90
18229;DHT22;9239;50.932;3.142;2022-07-23T11:37:54;25.30;99.90
18229;DHT22;9239;50.932;3.142;2022-07-23T11:40:25;25.20;99.90
18229;DHT22;9239;50.932;3.142;2022-07-23T11:42:55;25.20;99.90
18229;DHT22;9239;50.932;3.142;2022-07-23T11:45:23;25.20;99.90
18229;DHT22;9239;50.932;3.142;2022-07-23T11:47:52;25.10;99.90
18229;DHT22;9239;50.932;3.142;2022-07-23T11:50:19;25.20;99.90
18229;DHT22;9239;50.932;3.142;2022-07-23T11:52:46;25.20;99.90
18229;DHT22;9239;50.932;3.142;2022-07-23T11:55:13;25.00;99.90
18229;DHT22;9239;50.932;3.142;2022-07-23T11:57:42;24.90;99.90
18229;DHT22;9239;50.932;3.142;2022-07-23T12:00:13;24.70;99.90
18229;DHT22;9239;50.932;3.142;2022-07-23T12:02:42;24.80;99.90
18229;DHT22;9239;50.932;3.142;2022-07-23T12:05:14;25.10;99.90
18229;DHT22;9239;50.932;3.142;2022-07-23T12:07:42;25.30;99.90
18229;DHT22;9239;50.932;3.142;2022-07-23T12:10:12;25.50;99.90
18229;DHT22;9239;50.932;3.142;2022-07-23T12:12:40;25.60;99.90
18229;DHT22;9239;50.932;3.142;2022-07-23T12:15:09;25.70;99.90
18229;DHT22;9239;50.932;3.142;2022-07-23T12:17:38;25.60;99.90
18229;DHT22;9239;50.932;3.142;2022-07-23T12:20:08;25.60;99.90
18229;DHT22;9239;50.932;3.142;2022-07-23T12:22:39;25.70;99.90
18229;DHT22;9239;50.932;3.142;2022-07-23T12:25:09;25.80;99.90
18229;DHT22;9239;50.932;3.142;2022-07-23T12:27:36;25.90;99.90
18229;DHT22;9239;50.932;3.142;2022-07-23T12:30:20;25.80;99.90
18229;DHT22;9239;50.932;3.142;2022-07-23T12:32:49;25.90;99.90
18229;DHT22;9239;50.932;3.142;2022-07-23T12:35:17;25.90;99.90
18229;DHT22;9239;50.932;3.142;2022-07-23T12:37:47;25.80;99.90
18229;DHT22;9239;50.932;3.142;2022-07-23T12:40:28;25.90;99.90
18229;DHT22;9239;50.932;3.142;2022-07-23T12:42:57;26.00;99.90
18229;DHT22;9239;50.932;3.142;2022-07-23T12:45:25;25.80;99.90
18229;DHT22;9239;50.932;3.142;2022-07-23T12:48:05;26.00;99.90
18229;DHT22;9239;50.932;3.142;2022-07-23T12:50:44;25.90;99.90
18229;DHT22;9239;50.932;3.142;2022-07-23T12:53:16;25.70;99.90
18229;DHT22;9239;50.932;3.142;2022-07-23T12:55:44;25.60;99.90
18229;DHT22;9239;50.932;3.142;2022-07-23T12:58:13;25.70;99.90
18229;DHT22;9239;50.932;3.142;2022-07-23T13:00:52;25.90;99.90
18229;DHT22;9239;50.932;3.142;2022-07-23T13:03:24;26.00;99.90
18229;DHT22;9239;50.932;3.142;2022-07-23T13:05:52;26.00;99.90
18229;DHT22;9239;50.932;3.142;2022-07-23T13:08:20;26.20;99.90
18229;DHT22;9239;50.932;3.142;2022-07-23T13:10:48;26.10;99.90
18229;DHT22;9239;50.932;3.142;2022-07-23T13:13:17;26.00;99.90
18229;DHT22;9239;50.932;3.142;2022-07-23T13:15:47;26.20;99.90
18229;DHT22;9239;50.932;3.142;2022-07-23T13:18:15;26.60;99.90
18229;DHT22;9239;50.932;3.142;2022-07-23T13:20:43;26.50;99.90
18229;DHT22;9239;50.932;3.142;2022-07-23T13:23:10;26.80;99.90
18229;DHT22;9239;50.932;3.142;2022-07-23T13:25:38;26.90;99.90
18229;DHT22;9239;50.932;3.142;2022-07-23T13:28:05;27.10;99.90
18229;DHT22;9239;50.932;3.142;2022-07-23T13:30:33;27.30;99.90
18229;DHT22;9239;50.932;3.142;2022-07-23T13:33:01;27.50;99.90
18229;DHT22;9239;50.932;3.142;2022-07-23T13:35:28;27.70;99.90
18229;DHT22;9239;50.932;3.142;2022-07-23T13:37:55;27.70;99.90
18229;DHT22;9239;50.932;3.142;2022-07-23T13:40:22;27.60;99.90
18229;DHT22;9239;50.932;3.142;2022-07-23T13:42:51;27.50;99.90
18229;DHT22;9239;50.932;3.142;2022-07-23T13:45:18;27.20;99.90
18229;DHT22;9239;50.932;3.142;2022-07-23T13:47:45;27.10;99.90
18229;DHT22;9239;50.932;3.142;2022-07-23T13:50:12;26.80;99.90
18229;DHT22;9239;50.932;3.142;2022-07-23T13:52:40;26.80;99.90
18229;DHT22;9239;50.932;3.142;2022-07-23T13:55:08;26.80;99.90
18229;DHT22;9239;50.932;3.142;2022-07-23T13:57:35;26.70;99.90
18229;DHT22;9239;50.932;3.142;2022-07-23T14:00:04;26.80;99.90
18229;DHT22;9239;50.932;3.142;2022-07-23T14:02:32;26.90;99.90
18229;DHT22;9239;50.932;3.142;2022-07-23T14:04:59;26.80;99.90
18229;DHT22;9239;50.932;3.142;2022-07-23T14:07:26;26.90;99.90
18229;DHT22;9239;50.932;3.142;2022-07-23T14:09:53;26.90;99.90
18229;DHT22;9239;50.932;3.142;2022-07-23T14:12:20;26.60;99.90
18229;DHT22;9239;50.932;3.142;2022-07-23T14:14:47;26.60;99.90
18229;DHT22;9239;50.932;3.142;2022-07-23T14:17:15;26.80;99.90
18229;DHT22;9239;50.932;3.142;2022-07-23T14:19:42;26.90;99.90
18229;DHT22;9239;50.932;3.142;2022-07-23T14:22:09;27.10;99.90
18229;DHT22;9239;50.932;3.142;2022-07-23T14:24:36;27.30;99.90
18229;DHT22;9239;50.932;3.142;2022-07-23T14:27:04;27.60;99.90
18229;DHT22;9239;50.932;3.142;2022-07-23T14:29:31;27.90;99.90
18229;DHT22;9239;50.932;3.142;2022-07-23T14:31:59;27.90;99.90
18229;DHT22;9239;50.932;3.142;2022-07-23T14:34:28;27.90;99.90
18229;DHT22;9239;50.932;3.142;2022-07-23T14:36:55;27.70;99.90
18229;DHT22;9239;50.932;3.142;2022-07-23T14:39:22;27.60;99.90
18229;DHT22;9239;50.932;3.142;2022-07-23T14:41:49;27.50;99.90
18229;DHT22;9239;50.932;3.142;2022-07-23T14:44:16;27.30;99.90
18229;DHT22;9239;50.932;3.142;2022-07-23T14:46:43;27.40;99.90
18229;DHT22;9239;50.932;3.142;2022-07-23T14:49:10;27.40;99.90
18229;DHT22;9239;50.932;3.142;2022-07-23T14:51:39;27.60;99.90
18229;DHT22;9239;50.932;3.142;2022-07-23T14:54:08;27.90;99.90
18229;DHT22;9239;50.932;3.142;2022-07-23T14:56:34;28.00;99.90
18229;DHT22;9239;50.932;3.142;2022-07-23T14:59:02;27.80;99.90
18229;DHT22;9239;50.932;3.142;2022-07-23T15:01:29;27.60;99.90
18229;DHT22;9239;50.932;3.142;2022-07-23T15:03:56;27.60;99.90
18229;DHT22;9239;50.932;3.142;2022-07-23T15:06:23;27.50;99.90
18229;DHT22;9239;50.932;3.142;2022-07-23T15:08:51;27.40;99.90
18229;DHT22;9239;50.932;3.142;2022-07-23T15:11:18;27.30;99.90
18229;DHT22;9239;50.932;3.142;2022-07-23T15:13:45;27.30;99.90
18229;DHT22;9239;50.932;3.142;2022-07-23T15:16:12;27.00;99.90
18229;DHT22;9239;50.932;3.142;2022-07-23T15:18:39;26.90;99.90
18229;DHT22;9239;50.932;3.142;2022-07-23T15:21:06;26.90;99.90
18229;DHT22;9239;50.932;3.142;2022-07-23T15:23:33;27.10;99.90
18229;DHT22;9239;50.932;3.142;2022-07-23T15:26:02;27.20;99.90
18229;DHT22;9239;50.932;3.142;2022-07-23T15:28:29;27.30;99.90
18229;DHT22;9239;50.932;3.142;2022-07-23T15:30:55;27.40;99.90
18229;DHT22;9239;50.932;3.142;2022-07-23T15:33:22;27.20;99.90
18229;DHT22;9239;50.932;3.142;2022-07-23T15:35:49;27.40;99.90
18229;DHT22;9239;50.932;3.142;2022-07-23T15:38:18;27.40;99.90
18229;DHT22;9239;50.932;3.142;2022-07-23T15:40:45;27.10;99.90
18229;DHT22;9239;50.932;3.142;2022-07-23T15:43:13;27.10;99.90
18229;DHT22;9239;50.932;3.142;2022-07-23T15:45:41;27.00;99.90
18229;DHT22;9239;50.932;3.142;2022-07-23T15:48:08;26.80;99.90
18229;DHT22;9239;50.932;3.142;2022-07-23T15:50:34;26.80;99.90
18229;DHT22;9239;50.932;3.142;2022-07-23T15:53:01;26.70;99.90
18229;DHT22;9239;50.932;3.142;2022-07-23T15:55:28;26.60;99.90
18229;DHT22;9239;50.932;3.142;2022-07-23T15:57:56;26.60;99.90
18229;DHT22;9239;50.932;3.142;2022-07-23T16:00:24;26.60;99.90